createdAt,value
2023-02-05T00:02:04.322Z,4.07
2023-02-05T00:04:36.583Z,3.30
2023-02-05T00:07:08.240Z,2.93
2023-02-05T00:09:40.967Z,3.07
2023-02-05T00:12:12.260Z,2.90
2023-02-05T00:14:43.548Z,2.27
2023-02-05T00:17:14.850Z,2.40
2023-02-05T00:19:46.104Z,2.47
2023-02-05T00:22:17.377Z,1.70
2023-02-05T00:24:48.707Z,1.90
2023-02-05T00:27:19.971Z,2.07
2023-02-05T00:29:51.252Z,2.50
2023-02-05T00:32:22.562Z,2.00
2023-02-05T00:34:53.830Z,1.87
2023-02-05T00:37:25.099Z,2.90
2023-02-05T00:39:56.391Z,3.77
2023-02-05T00:42:28.132Z,3.87
2023-02-05T00:44:59.393Z,4.70
2023-02-05T00:47:30.655Z,5.03
2023-02-05T00:50:01.917Z,5.27
2023-02-05T00:52:33.209Z,3.60
2023-02-05T00:55:04.959Z,3.77
2023-02-05T00:57:36.224Z,2.60
2023-02-05T01:00:08.793Z,2.40
2023-02-05T01:02:40.283Z,2.20
2023-02-05T01:05:11.712Z,2.10
2023-02-05T01:07:44.130Z,1.93
2023-02-05T01:10:15.625Z,1.90
2023-02-05T01:12:49.122Z,2.10
2023-02-05T01:15:20.876Z,2.20
2023-02-05T01:17:52.363Z,2.37
2023-02-05T01:20:23.701Z,2.20
2023-02-05T01:22:55.778Z,2.60
2023-02-05T01:25:27.048Z,2.30
2023-02-05T01:27:58.439Z,2.07
2023-02-05T01:30:29.744Z,2.27
2023-02-05T01:33:01.458Z,2.07
2023-02-05T01:35:33.218Z,1.70
2023-02-05T01:38:04.684Z,1.73
2023-02-05T01:40:35.962Z,1.80
2023-02-05T01:43:13.075Z,2.40
2023-02-05T01:45:50.981Z,2.03
2023-02-05T01:48:27.775Z,2.23
2023-02-05T01:51:04.317Z,2.07
2023-02-05T01:53:37.080Z,2.20
2023-02-05T01:56:12.848Z,2.20
2023-02-05T01:58:49.701Z,1.83
2023-02-05T02:01:21.158Z,1.53
2023-02-05T02:03:55.086Z,1.70
2023-02-05T02:06:26.622Z,1.97
2023-02-05T02:08:57.984Z,2.20
2023-02-05T02:11:32.962Z,2.07
2023-02-05T02:14:07.789Z,1.83
2023-02-05T02:16:40.476Z,2.67
2023-02-05T02:19:26.223Z,2.20
2023-02-05T02:22:22.580Z,2.73
2023-02-05T02:25:24.158Z,1.90
2023-02-05T02:28:07.350Z,1.93
2023-02-05T02:31:09.037Z,1.80
2023-02-05T02:34:25.459Z,1.50
2023-02-05T02:37:06.866Z,1.93
2023-02-05T02:39:50.462Z,2.10
2023-02-05T02:42:28.983Z,2.30
2023-02-05T02:45:03.009Z,1.77
2023-02-05T02:47:40.435Z,1.90
2023-02-05T02:50:21.252Z,1.93
2023-02-05T02:52:54.885Z,1.60
2023-02-05T02:55:26.904Z,2.07
2023-02-05T02:58:01.148Z,1.50
2023-02-05T03:00:33.926Z,1.37
2023-02-05T03:03:08.214Z,1.70
2023-02-05T03:05:41.891Z,2.10
2023-02-05T03:08:24.827Z,1.53
2023-02-05T03:11:02.679Z,1.73
2023-02-05T03:13:34.615Z,1.27
2023-02-05T03:16:07.052Z,1.63
2023-02-05T03:18:38.776Z,1.57
2023-02-05T03:21:16.644Z,1.50
2023-02-05T03:23:48.732Z,1.87
2023-02-05T03:26:29.623Z,1.60
2023-02-05T03:29:05.198Z,1.40
2023-02-05T03:31:42.513Z,1.90
2023-02-05T03:34:37.666Z,1.57
2023-02-05T03:37:26.614Z,1.70
2023-02-05T03:40:30.288Z,1.60
2023-02-05T03:43:16.028Z,1.57
2023-02-05T03:46:28.636Z,2.00
2023-02-05T03:49:22.148Z,1.30
2023-02-05T03:52:07.258Z,1.50
2023-02-05T03:54:56.718Z,1.40
2023-02-05T03:57:39.743Z,1.30
2023-02-05T04:00:12.692Z,1.30
2023-02-05T04:02:45.355Z,1.37
2023-02-05T04:05:16.889Z,1.20
2023-02-05T04:07:49.808Z,1.40
2023-02-05T04:10:21.088Z,1.90
2023-02-05T04:12:52.339Z,2.63
2023-02-05T04:15:24.619Z,1.60
2023-02-05T04:17:57.846Z,1.57
2023-02-05T04:20:29.380Z,1.50
2023-02-05T04:23:00.638Z,1.70
2023-02-05T04:25:32.262Z,1.70
2023-02-05T04:28:04.937Z,1.73
2023-02-05T04:30:36.366Z,1.70
2023-02-05T04:33:07.711Z,1.50
2023-02-05T04:35:39.011Z,1.43
2023-02-05T04:38:10.390Z,1.70
2023-02-05T04:40:41.723Z,1.47
2023-02-05T04:43:12.980Z,1.83
2023-02-05T04:45:44.594Z,1.73
2023-02-05T04:48:16.361Z,1.50
2023-02-05T04:50:47.916Z,1.53
2023-02-05T04:53:19.257Z,1.60
2023-02-05T04:55:50.531Z,1.73
2023-02-05T04:58:21.834Z,1.90
2023-02-05T05:00:53.152Z,1.63
2023-02-05T05:03:24.505Z,1.90
2023-02-05T05:05:55.939Z,1.53
2023-02-05T05:08:28.519Z,1.40
2023-02-05T05:11:00.729Z,1.83
2023-02-05T05:13:34.293Z,2.03
2023-02-05T05:16:07.034Z,1.47
2023-02-05T05:18:39.667Z,2.00
2023-02-05T05:21:11.445Z,1.77
2023-02-05T05:23:42.715Z,2.00
2023-02-05T05:26:14.038Z,1.77
2023-02-05T05:28:45.414Z,1.43
2023-02-05T05:31:18.361Z,1.40
2023-02-05T05:33:50.073Z,1.93
2023-02-05T05:36:21.441Z,2.03
2023-02-05T05:38:52.684Z,1.60
2023-02-05T05:41:42.905Z,1.80
2023-02-05T05:44:14.200Z,1.53
2023-02-05T05:46:45.514Z,1.70
2023-02-05T05:49:16.760Z,1.50
2023-02-05T05:51:48.030Z,1.47
2023-02-05T05:54:19.361Z,1.80
2023-02-05T05:56:50.692Z,1.33
2023-02-05T05:59:22.063Z,1.80
2023-02-05T06:01:53.588Z,1.50
2023-02-05T06:04:25.003Z,1.73
2023-02-05T06:06:56.578Z,1.43
2023-02-05T06:09:28.137Z,1.70
2023-02-05T06:11:59.605Z,1.67
2023-02-05T06:14:31.103Z,1.63
2023-02-05T06:17:02.372Z,1.80
2023-02-05T06:19:33.663Z,1.40
2023-02-05T06:22:04.968Z,1.70
2023-02-05T06:24:36.241Z,1.90
2023-02-05T06:27:07.553Z,1.53
2023-02-05T06:29:38.880Z,1.57
2023-02-05T06:32:10.155Z,1.77
2023-02-05T06:34:42.079Z,1.40
2023-02-05T06:37:13.867Z,1.80
2023-02-05T06:39:45.147Z,1.90
2023-02-05T06:42:16.502Z,1.47
2023-02-05T06:44:47.766Z,1.80
2023-02-05T06:47:19.036Z,1.83
2023-02-05T06:49:50.308Z,1.27
2023-02-05T06:52:21.616Z,1.87
2023-02-05T06:54:52.895Z,1.57
2023-02-05T06:57:24.279Z,1.87
2023-02-05T06:59:55.574Z,2.40
2023-02-05T07:02:27.338Z,1.50
2023-02-05T07:04:58.670Z,1.60
2023-02-05T07:07:30.068Z,1.80
2023-02-05T07:10:01.970Z,1.90
2023-02-05T07:12:33.429Z,1.70
2023-02-05T07:15:04.972Z,1.70
2023-02-05T07:17:36.880Z,1.77
2023-02-05T07:20:08.693Z,2.03
2023-02-05T07:22:40.073Z,1.87
2023-02-05T07:25:11.357Z,1.80
2023-02-05T07:27:42.783Z,2.03
2023-02-05T07:30:14.741Z,2.33
2023-02-05T07:32:46.032Z,2.40
2023-02-05T07:35:17.534Z,3.97
2023-02-05T07:37:48.882Z,3.27
2023-02-05T07:40:20.187Z,2.10
2023-02-05T07:42:51.457Z,3.10
2023-02-05T07:45:22.893Z,1.83
2023-02-05T07:47:54.216Z,1.70
2023-02-05T07:50:25.531Z,1.70
2023-02-05T07:52:56.814Z,1.80
2023-02-05T07:55:28.163Z,2.60
2023-02-05T07:57:59.442Z,2.70
2023-02-05T08:00:31.139Z,2.83
2023-02-05T08:03:02.527Z,2.57
2023-02-05T08:05:34.366Z,2.30
2023-02-05T08:08:06.949Z,2.30
2023-02-05T08:10:38.231Z,2.50
2023-02-05T08:13:09.528Z,2.20
2023-02-05T08:15:40.845Z,1.97
2023-02-05T08:18:12.123Z,1.70
2023-02-05T08:20:44.202Z,2.20
2023-02-05T08:23:15.486Z,2.10
2023-02-05T08:25:47.224Z,1.63
2023-02-05T08:28:18.626Z,1.90
2023-02-05T08:30:50.141Z,2.10
2023-02-05T08:33:21.614Z,1.60
2023-02-05T08:35:52.984Z,1.93
2023-02-05T08:38:24.354Z,2.20
2023-02-05T08:40:55.637Z,2.00
2023-02-05T08:43:26.998Z,1.83
2023-02-05T08:45:58.245Z,2.00
2023-02-05T08:48:29.519Z,1.80
2023-02-05T08:51:00.892Z,2.53
2023-02-05T08:53:32.962Z,2.00
2023-02-05T08:56:05.868Z,1.90
2023-02-05T08:58:38.450Z,2.20
2023-02-05T09:01:17.077Z,2.13
2023-02-05T09:03:48.453Z,1.80
2023-02-05T09:06:19.706Z,2.53
2023-02-05T09:08:50.999Z,2.83
2023-02-05T09:11:23.815Z,2.03
2023-02-05T09:13:55.205Z,2.37
2023-02-05T09:16:27.089Z,2.23
2023-02-05T09:18:59.699Z,2.30
2023-02-05T09:21:31.309Z,2.00
2023-02-05T09:24:02.824Z,1.90
2023-02-05T09:26:34.096Z,2.43
2023-02-05T09:29:05.369Z,1.80
2023-02-05T09:31:36.918Z,1.90
2023-02-05T09:34:08.234Z,2.10
2023-02-05T09:36:40.461Z,2.30
2023-02-05T09:39:21.800Z,2.50
2023-02-05T09:42:05.608Z,2.90
2023-02-05T09:44:49.559Z,2.60
2023-02-05T09:47:53.627Z,2.70
2023-02-05T09:50:29.693Z,4.20
2023-02-05T09:53:09.483Z,2.92
2023-02-05T09:55:44.850Z,2.33
2023-02-05T09:58:21.196Z,2.53
2023-02-05T10:03:48.047Z,1.60
2023-02-05T10:06:19.815Z,1.93
2023-02-05T10:09:30.292Z,1.90
2023-02-05T10:12:17.266Z,1.70
2023-02-05T10:14:58.290Z,1.70
2023-02-05T10:17:50.113Z,1.83
2023-02-05T10:20:27.430Z,2.13
2023-02-05T10:23:16.553Z,1.93
2023-02-05T10:26:09.755Z,2.03
2023-02-05T10:29:11.380Z,2.23
2023-02-05T10:31:48.460Z,1.90
2023-02-05T10:34:20.062Z,2.13
2023-02-05T10:36:53.851Z,1.60
2023-02-05T10:39:28.885Z,2.30
2023-02-05T10:42:06.640Z,1.93
2023-02-05T10:44:45.767Z,1.90
2023-02-05T10:47:25.194Z,2.43
2023-02-05T10:50:30.586Z,2.77
2023-02-05T10:53:02.025Z,4.57
2023-02-05T10:55:33.690Z,2.77
2023-02-05T10:58:24.325Z,5.93
2023-02-05T11:00:56.069Z,4.40
2023-02-05T11:03:27.536Z,3.43
2023-02-05T11:05:59.442Z,4.43
2023-02-05T11:08:31.937Z,2.30
2023-02-05T11:11:04.966Z,2.10
2023-02-05T11:13:41.711Z,1.80
2023-02-05T11:16:13.085Z,2.60
2023-02-05T11:18:54.711Z,2.03
2023-02-05T11:21:47.827Z,1.67
2023-02-05T11:24:39.237Z,2.17
2023-02-05T11:27:24.640Z,2.03
2023-02-05T11:30:00.014Z,1.90
2023-02-05T11:32:37.064Z,2.00
2023-02-05T11:35:32.587Z,2.07
2023-02-05T11:38:29.598Z,1.80
2023-02-05T11:41:05.398Z,2.22
2023-02-05T11:43:56.662Z,2.38
2023-02-05T11:46:33.877Z,1.67
2023-02-05T11:49:05.272Z,2.07
2023-02-05T11:51:44.599Z,2.00
2023-02-05T11:54:18.979Z,1.70
2023-02-05T11:57:21.600Z,2.03
2023-02-05T12:00:02.282Z,2.10
2023-02-05T12:02:37.099Z,2.03
2023-02-05T12:05:11.269Z,1.70
2023-02-05T12:08:01.838Z,2.00
2023-02-05T12:11:01.256Z,2.13
2023-02-05T12:14:16.689Z,2.30
2023-02-05T12:17:10.739Z,1.80
2023-02-05T12:19:56.506Z,3.33
2023-02-05T12:22:27.778Z,2.07
2023-02-05T12:25:40.790Z,2.47
2023-02-05T12:28:30.230Z,2.33
2023-02-05T12:31:22.587Z,2.93
2023-02-05T12:34:15.954Z,3.10
2023-02-05T12:37:03.673Z,8.53
2023-02-05T12:39:45.875Z,2.87
2023-02-05T12:42:17.163Z,2.40
2023-02-05T12:45:06.677Z,2.20
2023-02-05T12:48:02.843Z,1.93
2023-02-05T12:51:08.606Z,2.40
2023-02-05T12:53:54.460Z,2.10
2023-02-05T12:56:44.405Z,2.30
2023-02-05T12:59:37.251Z,2.23
2023-02-05T13:02:15.828Z,2.10
2023-02-05T13:05:08.748Z,2.13
2023-02-05T13:07:46.891Z,2.07
2023-02-05T13:10:24.183Z,1.63
2023-02-05T13:13:00.215Z,2.00
2023-02-05T13:15:39.316Z,2.00
2023-02-05T13:18:26.316Z,1.93
2023-02-05T13:21:21.360Z,1.90
2023-02-05T13:24:19.023Z,2.40
2023-02-05T13:27:09.382Z,2.37
2023-02-05T13:29:51.225Z,2.20
2023-02-05T13:32:30.973Z,2.83
2023-02-05T13:35:02.450Z,2.97
2023-02-05T13:37:45.026Z,2.90
2023-02-05T13:40:48.742Z,2.60
2023-02-05T13:43:52.871Z,2.43
2023-02-05T13:47:05.280Z,2.77
2023-02-05T13:50:15.755Z,2.73
2023-02-05T13:52:53.046Z,2.90
2023-02-05T13:55:35.872Z,2.70
2023-02-05T13:58:25.741Z,3.00
2023-02-05T14:01:01.955Z,2.60
2023-02-05T14:06:27.393Z,2.87
2023-02-05T14:09:18.953Z,2.73
2023-02-05T14:11:56.869Z,2.80
2023-02-05T14:14:38.117Z,2.60
2023-02-05T14:17:27.685Z,2.67
2023-02-05T14:20:01.026Z,2.90
2023-02-05T14:22:43.840Z,2.57
2023-02-05T14:25:41.547Z,2.77
2023-02-05T14:28:15.757Z,2.50
2023-02-05T14:30:51.500Z,2.73
2023-02-05T14:33:42.417Z,2.78
2023-02-05T14:36:24.236Z,2.70
2023-02-05T14:39:07.053Z,2.03
2023-02-05T14:41:41.680Z,2.47
2023-02-05T14:44:12.890Z,2.33
2023-02-05T14:47:17.763Z,2.70
2023-02-05T14:49:50.800Z,3.00
2023-02-05T14:52:38.991Z,2.50
2023-02-05T14:55:13.098Z,2.47
2023-02-05T14:57:55.399Z,2.40
2023-02-05T15:00:36.652Z,2.87
2023-02-05T15:03:17.684Z,3.10
2023-02-05T15:05:54.221Z,3.13
2023-02-05T15:08:40.398Z,2.30
2023-02-05T15:11:21.097Z,2.72
2023-02-05T15:14:21.244Z,2.83
2023-02-05T15:17:04.814Z,2.67
2023-02-05T15:19:44.378Z,3.17
2023-02-05T15:22:28.340Z,2.60
2023-02-05T15:25:01.149Z,3.30
2023-02-05T15:27:46.653Z,4.87
2023-02-05T15:30:22.113Z,3.50
2023-02-05T15:33:03.915Z,3.60
2023-02-05T15:35:37.624Z,4.00
2023-02-05T15:38:26.585Z,3.27
2023-02-05T15:41:00.027Z,3.40
2023-02-05T15:43:31.310Z,3.47
2023-02-05T15:46:06.810Z,3.00
2023-02-05T15:48:40.589Z,2.88
2023-02-05T15:51:27.074Z,3.27
2023-02-05T15:54:03.017Z,3.33
2023-02-05T15:56:41.247Z,3.37
2023-02-05T15:59:17.080Z,3.93
2023-02-05T16:02:01.637Z,3.47
2023-02-05T16:04:38.533Z,3.10
2023-02-05T16:07:23.057Z,2.93
2023-02-05T16:10:00.145Z,3.60
2023-02-05T16:12:31.655Z,3.07
2023-02-05T16:15:06.330Z,2.97
2023-02-05T16:17:46.234Z,3.20
2023-02-05T16:20:29.116Z,3.70
2023-02-05T16:23:23.593Z,3.47
2023-02-05T16:26:03.020Z,3.37
2023-02-05T16:28:40.024Z,3.50
2023-02-05T16:31:20.568Z,2.83
2023-02-05T16:34:04.532Z,3.70
2023-02-05T16:36:42.953Z,3.57
2023-02-05T16:39:45.891Z,3.80
2023-02-05T16:42:40.067Z,4.23
2023-02-05T16:45:33.301Z,4.47
2023-02-05T16:48:26.205Z,4.67
2023-02-05T16:50:58.026Z,4.00
2023-02-05T16:53:32.014Z,4.63
2023-02-05T16:56:21.671Z,4.27
2023-02-05T16:58:57.588Z,4.10
2023-02-05T17:01:36.857Z,3.45
2023-02-05T17:04:08.492Z,3.70
2023-02-05T17:06:39.798Z,3.50
2023-02-05T17:09:37.963Z,4.20
2023-02-05T17:12:32.356Z,3.67
2023-02-05T17:15:13.762Z,4.00
2023-02-05T17:17:50.283Z,4.27
2023-02-05T17:20:28.770Z,4.67
2023-02-05T17:23:00.032Z,7.03
2023-02-05T17:25:36.541Z,7.87
2023-02-05T17:28:16.388Z,8.50
2023-02-05T17:30:49.154Z,8.23
2023-02-05T17:33:23.698Z,8.30
2023-02-05T17:35:55.382Z,9.40
2023-02-05T17:38:26.804Z,9.27
2023-02-05T17:41:16.798Z,9.23
2023-02-05T17:43:48.083Z,10.20
2023-02-05T17:46:19.434Z,8.97
2023-02-05T17:48:51.182Z,8.27
2023-02-05T17:51:26.562Z,8.50
2023-02-05T17:53:58.570Z,8.20
2023-02-05T17:56:30.066Z,7.90
2023-02-05T17:59:01.441Z,8.57
2023-02-05T18:01:32.850Z,8.53
2023-02-05T18:04:04.263Z,9.13
2023-02-05T18:06:36.926Z,8.50
2023-02-05T18:09:09.567Z,8.87
2023-02-05T18:11:41.782Z,8.53
2023-02-05T18:14:13.147Z,8.73
2023-02-05T18:16:44.737Z,7.60
2023-02-05T18:19:16.181Z,9.43
2023-02-05T18:21:48.525Z,9.93
2023-02-05T18:24:19.838Z,9.23
2023-02-05T18:26:52.629Z,10.27
2023-02-05T18:29:24.217Z,10.57
2023-02-05T18:31:55.962Z,11.83
2023-02-05T18:34:27.383Z,10.47
2023-02-05T18:36:59.362Z,9.73
2023-02-05T18:39:30.816Z,10.70
2023-02-05T18:42:02.195Z,8.97
2023-02-05T18:44:33.770Z,9.87
2023-02-05T18:47:06.169Z,8.90
2023-02-05T18:49:37.689Z,9.93
2023-02-05T18:52:10.155Z,10.10
2023-02-05T18:54:41.434Z,11.23
2023-02-05T18:57:12.835Z,10.93
2023-02-05T18:59:45.270Z,9.43
2023-02-05T19:02:16.584Z,9.53
2023-02-05T19:04:52.046Z,9.13
2023-02-05T19:07:24.729Z,8.65
2023-02-05T19:09:57.477Z,10.03
2023-02-05T19:12:31.354Z,10.63
2023-02-05T19:15:02.717Z,10.20
2023-02-05T19:17:34.092Z,12.53
2023-02-05T19:20:05.841Z,14.93
2023-02-05T19:22:37.261Z,13.37
2023-02-05T19:25:08.761Z,14.93
2023-02-05T19:27:40.015Z,11.37
2023-02-05T19:30:13.942Z,12.27
2023-02-05T19:32:45.863Z,11.37
2023-02-05T19:35:17.330Z,9.80
2023-02-05T19:37:48.626Z,10.97
2023-02-05T19:40:20.128Z,9.50
2023-02-05T19:42:52.755Z,12.07
2023-02-05T19:45:24.032Z,10.27
2023-02-05T19:47:55.303Z,9.60
2023-02-05T19:50:26.862Z,10.90
2023-02-05T19:52:58.242Z,10.43
2023-02-05T19:55:29.557Z,11.87
2023-02-05T19:58:00.824Z,11.27
2023-02-05T20:00:32.110Z,9.43
2023-02-05T20:03:03.549Z,9.87
2023-02-05T20:05:36.797Z,11.10
2023-02-05T20:08:08.063Z,9.67
2023-02-05T20:10:39.412Z,10.63
2023-02-05T20:13:11.171Z,10.57
2023-02-05T20:15:42.651Z,11.07
2023-02-05T20:18:13.971Z,11.83
2023-02-05T20:20:45.406Z,12.47
2023-02-05T20:23:17.559Z,12.17
2023-02-05T20:25:54.372Z,11.37
2023-02-05T20:28:26.866Z,11.63
2023-02-05T20:31:18.086Z,11.83
2023-02-05T20:33:50.149Z,12.23
2023-02-05T20:36:21.445Z,11.70
2023-02-05T20:38:57.963Z,12.20
2023-02-05T20:41:29.435Z,11.20
2023-02-05T20:44:03.068Z,11.43
2023-02-05T20:46:35.168Z,11.30
2023-02-05T20:49:08.632Z,11.60
2023-02-05T20:51:40.343Z,12.23
2023-02-05T20:54:12.544Z,10.57
2023-02-05T20:56:43.929Z,10.60
2023-02-05T20:59:16.245Z,11.17
2023-02-05T21:01:47.681Z,10.70
2023-02-05T21:04:20.295Z,9.80
2023-02-05T21:06:53.524Z,10.27
2023-02-05T21:09:25.085Z,9.67
2023-02-05T21:11:56.457Z,9.87
2023-02-05T21:14:27.733Z,12.33
2023-02-05T21:16:59.543Z,11.00
2023-02-05T21:19:30.883Z,13.10
2023-02-05T21:22:02.217Z,11.70
2023-02-05T21:24:33.604Z,11.27
2023-02-05T21:27:04.920Z,11.60
2023-02-05T21:29:36.383Z,10.23
2023-02-05T21:32:08.025Z,11.73
2023-02-05T21:34:39.458Z,12.90
2023-02-05T21:37:10.781Z,14.03
2023-02-05T21:39:43.555Z,17.10
2023-02-05T21:42:14.815Z,14.27
2023-02-05T21:44:49.212Z,13.10
2023-02-05T21:47:20.485Z,13.77
2023-02-05T21:49:51.763Z,16.10
2023-02-05T21:52:23.035Z,16.50
2023-02-05T21:54:54.363Z,14.37
2023-02-05T21:57:25.616Z,14.30
2023-02-05T21:59:56.887Z,15.50
2023-02-05T22:02:28.187Z,15.23
2023-02-05T22:04:59.570Z,14.97
2023-02-05T22:07:30.867Z,18.27
2023-02-05T22:10:02.276Z,17.43
2023-02-05T22:12:33.533Z,15.50
2023-02-05T22:15:05.189Z,17.50
2023-02-05T22:17:36.464Z,15.53
2023-02-05T22:20:08.089Z,14.77
2023-02-05T22:22:39.338Z,12.20
2023-02-05T22:25:10.619Z,13.57
2023-02-05T22:27:42.754Z,14.27
2023-02-05T22:30:14.218Z,12.10
2023-02-05T22:32:45.583Z,11.50
2023-02-05T22:35:17.125Z,11.10
2023-02-05T22:37:48.383Z,11.83
2023-02-05T22:40:19.831Z,12.47
2023-02-05T22:42:51.107Z,12.57
2023-02-05T22:45:24.084Z,11.67
2023-02-05T22:47:55.335Z,10.73
2023-02-05T22:50:26.620Z,11.57
2023-02-05T22:52:57.877Z,10.93
2023-02-05T22:55:29.139Z,12.20
2023-02-05T22:58:00.539Z,12.83
2023-02-05T23:00:32.533Z,11.87
2023-02-05T23:03:04.184Z,11.47
2023-02-05T23:05:35.760Z,13.63
2023-02-05T23:08:07.239Z,11.63
2023-02-05T23:10:38.587Z,12.50
2023-02-05T23:13:09.857Z,12.60
2023-02-05T23:15:41.229Z,13.73
2023-02-05T23:18:12.505Z,12.53
2023-02-05T23:20:43.775Z,12.80
2023-02-05T23:23:15.078Z,12.50
2023-02-05T23:25:49.742Z,13.43
2023-02-05T23:28:24.243Z,11.87
2023-02-05T23:30:55.585Z,11.83
2023-02-05T23:33:26.940Z,11.77
2023-02-05T23:35:59.028Z,11.23
2023-02-05T23:38:30.312Z,12.60
2023-02-05T23:41:02.571Z,13.90
2023-02-05T23:43:35.469Z,13.67
2023-02-05T23:46:07.983Z,17.63
2023-02-05T23:48:39.376Z,18.23
2023-02-05T23:51:10.647Z,27.33
2023-02-05T23:53:41.898Z,21.03
2023-02-05T23:56:13.247Z,19.70
2023-02-05T23:58:44.570Z,18.13
